Time;durP1;ratioP1;P1;durP2;ratioP2;P2;SDS_P1;SDS_P2;PMS_P1;PMS_P2;Temp;Humidity;BMP_temperature;BMP_pressure;BME280_temperature;BME280_humidity;BME280_pressure;Samples;Min_cycle;Max_cycle;Signal;HPM_P1;HPM_P2
2024/04/10 00:02:08;;;;;;;136.32;129.57;;;;;;;;;;5409937;26;20531;-59
2024/04/10 00:04:33;;;;;;;129.43;122.97;;;;;;;;;;5406074;26;20336;-59
2024/04/10 00:06:59;;;;;;;132.95;126.30;;;;;;;;;;5409372;26;20016;-58
2024/04/10 00:09:24;;;;;;;127.72;121.35;;;;;;;;;;5411775;26;20004;-59
2024/04/10 00:11:49;;;;;;;131.68;125.13;;;;;;;;;;5405380;26;20018;-59
2024/04/10 00:14:15;;;;;;;135.07;128.38;;;;;;;;;;5410648;26;20010;-60
2024/04/10 00:16:40;;;;;;;132.27;125.72;;;;;;;;;;5411804;26;20003;-60
2024/04/10 00:19:06;;;;;;;129.95;123.50;;;;;;;;;;5411149;26;20067;-59
2024/04/10 00:21:35;;;;;;;124.93;118.72;;;;;;;;;;5408617;26;20022;-59
2024/04/10 00:24:00;;;;;;;124.22;118.07;;;;;;;;;;5412497;26;20059;-60
2024/04/10 00:26:25;;;;;;;123.95;117.80;;;;;;;;;;5408842;26;20018;-59
2024/04/10 00:28:50;;;;;;;122.82;116.72;;;;;;;;;;5408083;26;20011;-59
2024/04/10 00:31:16;;;;;;;126.30;120.05;;;;;;;;;;5409952;26;20390;-59
2024/04/10 00:33:42;;;;;;;122.03;115.97;;;;;;;;;;5407691;26;20036;-59
2024/04/10 00:36:08;;;;;;;118.95;113.03;;;;;;;;;;5411488;26;20011;-59
2024/04/10 00:38:33;;;;;;;116.20;110.47;;;;;;;;;;5407419;26;20414;-59
2024/04/10 00:41:04;;;;;;;106.97;101.68;;;;;;;;;;5406383;26;20007;-59
2024/04/10 00:43:30;;;;;;;102.72;97.63;;;;;;;;;;5412638;26;20029;-59
2024/04/10 00:46:14;;;;;;;124.85;118.65;;;;;;;;;;5438488;26;20072;-59
2024/04/10 00:48:41;;;;;;;117.55;111.75;;;;;;;;;;5407448;26;20021;-59
2024/04/10 00:51:11;;;;;;;121.65;115.63;;;;;;;;;;5408280;26;20003;-59
2024/04/10 00:53:37;;;;;;;121.25;114.90;;;;;;;;;;5406312;26;20023;-60
2024/04/10 00:56:03;;;;;;;124.35;118.15;;;;;;;;;;5407664;26;20365;-59
2024/04/10 00:58:32;;;;;;;122.53;116.47;;;;;;;;;;5412028;26;19999;-59
2024/04/10 01:00:58;;;;;;;121.38;115.38;;;;;;;;;;5406780;26;20007;-59
2024/04/10 01:03:24;;;;;;;112.57;106.93;;;;;;;;;;5409428;26;20015;-59
2024/04/10 01:06:16;;;;;;;109.00;103.60;;;;;;;;;;5406105;26;20613;-59
2024/04/10 01:08:41;;;;;;;108.53;103.18;;;;;;;;;;5404398;26;20004;-59
2024/04/10 01:11:08;;;;;;;101.18;96.18;;;;;;;;;;5405815;26;20007;-59
2024/04/10 01:13:34;;;;;;;96.30;91.55;;;;;;;;;;5406711;26;20504;-59
2024/04/10 01:16:00;;;;;;;96.68;91.88;;;;;;;;;;5408822;26;20000;-59
2024/04/10 01:18:25;;;;;;;97.30;92.47;;;;;;;;;;5403096;26;20580;-59
2024/04/10 01:20:51;;;;;;;94.68;90.00;;;;;;;;;;5408015;26;20004;-59
2024/04/10 01:23:20;;;;;;;92.68;88.07;;;;;;;;;;5409007;26;20000;-59
2024/04/10 01:25:46;;;;;;;89.93;85.50;;;;;;;;;;5404833;26;20011;-60
2024/04/10 01:28:11;;;;;;;92.60;88.00;;;;;;;;;;5405864;26;20011;-59
2024/04/10 01:30:37;;;;;;;89.90;85.47;;;;;;;;;;5407159;26;20003;-60
2024/04/10 01:33:02;;;;;;;87.85;83.47;;;;;;;;;;5413307;26;19996;-60
2024/04/10 01:35:28;;;;;;;84.28;80.10;;;;;;;;;;5404486;26;20026;-60
2024/04/10 01:37:53;;;;;;;86.15;81.70;;;;;;;;;;5405605;26;20415;-59
2024/04/10 01:40:23;;;;;;;95.78;91.00;;;;;;;;;;5409015;26;20006;-60
2024/04/10 01:42:49;;;;;;;90.50;86.00;;;;;;;;;;5404097;26;20516;-60
2024/04/10 01:45:14;;;;;;;88.63;84.15;;;;;;;;;;5411831;26;20055;-60
2024/04/10 01:47:40;;;;;;;92.05;87.10;;;;;;;;;;5404993;26;20007;-59
2024/04/10 01:50:06;;;;;;;85.70;81.40;;;;;;;;;;5407758;26;20008;-59
2024/04/10 01:52:32;;;;;;;88.90;84.50;;;;;;;;;;5403858;26;20051;-60
2024/04/10 01:54:57;;;;;;;92.65;88.05;;;;;;;;;;5407340;26;20298;-60
2024/04/10 01:57:23;;;;;;;87.88;83.50;;;;;;;;;;5403243;26;20014;-59
2024/04/10 01:59:49;;;;;;;90.13;85.20;;;;;;;;;;5404521;26;20590;-59
2024/04/10 02:02:14;;;;;;;86.63;82.32;;;;;;;;;;5407213;26;20012;-59
2024/04/10 02:04:40;;;;;;;86.82;82.53;;;;;;;;;;5408608;26;20362;-59
2024/04/10 02:07:05;;;;;;;89.90;85.20;;;;;;;;;;5409697;26;20007;-60
2024/04/10 02:09:31;;;;;;;87.93;83.53;;;;;;;;;;5409662;26;20657;-60
2024/04/10 02:11:57;;;;;;;85.13;80.72;;;;;;;;;;5404680;26;20007;-58
2024/04/10 02:14:22;;;;;;;83.75;79.57;;;;;;;;;;5406225;26;20455;-56
2024/04/10 02:16:48;;;;;;;85.25;80.90;;;;;;;;;;5404725;26;20011;-58
2024/04/10 02:19:13;;;;;;;96.35;91.63;;;;;;;;;;5406021;26;20003;-56
2024/04/10 02:21:39;;;;;;;86.68;82.28;;;;;;;;;;5408251;26;20014;-55
2024/04/10 02:24:07;;;;;;;82.82;78.60;;;;;;;;;;5408889;26;20487;-56
2024/04/10 02:26:33;;;;;;;91.32;86.82;;;;;;;;;;5408343;26;19995;-56
2024/04/10 02:28:58;;;;;;;91.55;87.00;;;;;;;;;;5410677;26;20037;-58
2024/04/10 02:31:24;;;;;;;96.07;90.68;;;;;;;;;;5411890;26;20461;-58
2024/04/10 02:33:49;;;;;;;85.32;81.07;;;;;;;;;;5407439;26;20417;-57
2024/04/10 02:36:15;;;;;;;92.90;88.25;;;;;;;;;;5410357;26;20002;-56
2024/04/10 02:38:40;;;;;;;88.97;84.57;;;;;;;;;;5405655;26;20008;-52
2024/04/10 02:41:07;;;;;;;91.25;86.75;;;;;;;;;;5405189;26;20453;-57
2024/04/10 02:43:32;;;;;;;94.95;90.22;;;;;;;;;;5377631;26;20247;-56
2024/04/10 02:46:00;;;;;;;95.00;90.30;;;;;;;;;;5408142;26;20062;-56
2024/04/10 02:48:26;;;;;;;96.03;91.30;;;;;;;;;;5407729;26;20487;-56
2024/04/10 02:50:52;;;;;;;97.75;92.95;;;;;;;;;;5407787;26;20652;-55
2024/04/10 02:53:18;;;;;;;89.15;84.75;;;;;;;;;;5406973;26;20053;-54
2024/04/10 02:55:48;;;;;;;97.20;92.40;;;;;;;;;;5406247;26;20005;-57
2024/04/10 02:58:14;;;;;;;92.57;88.00;;;;;;;;;;5409748;26;20015;-57
2024/04/10 03:00:44;;;;;;;94.10;89.40;;;;;;;;;;5408567;26;20011;-57
2024/04/10 03:03:10;;;;;;;90.53;86.00;;;;;;;;;;5407840;26;20019;-58
2024/04/10 03:05:36;;;;;;;88.95;84.55;;;;;;;;;;5407759;26;20027;-56
2024/04/10 03:08:01;;;;;;;91.80;87.30;;;;;;;;;;5409697;26;20004;-56
2024/04/10 03:10:26;;;;;;;97.97;93.15;;;;;;;;;;5409223;26;20190;-56
2024/04/10 03:12:52;;;;;;;95.85;91.13;;;;;;;;;;5407607;26;20031;-55
2024/04/10 03:15:17;;;;;;;92.10;86.88;;;;;;;;;;5408286;26;20556;-53
2024/04/10 03:17:45;;;;;;;98.55;93.65;;;;;;;;;;5404890;26;20007;-52
2024/04/10 03:20:12;;;;;;;100.80;95.80;;;;;;;;;;5410049;26;20907;-57
2024/04/10 03:22:38;;;;;;;91.72;87.20;;;;;;;;;;5413043;26;20340;-56
2024/04/10 03:25:04;;;;;;;91.22;86.68;;;;;;;;;;5401487;26;20004;-54
2024/04/10 03:27:29;;;;;;;93.93;89.32;;;;;;;;;;5411701;26;20350;-54
2024/04/10 03:29:54;;;;;;;90.50;86.00;;;;;;;;;;5411239;26;20007;-57
2024/04/10 03:32:20;;;;;;;98.28;93.43;;;;;;;;;;5407060;26;20000;-58
2024/04/10 03:34:47;;;;;;;97.18;92.38;;;;;;;;;;5396171;26;20031;-55
2024/04/10 03:37:13;;;;;;;98.45;93.55;;;;;;;;;;5411382;26;20027;-58
2024/04/10 03:39:39;;;;;;;98.68;93.80;;;;;;;;;;5406948;26;20664;-55
2024/04/10 03:42:04;;;;;;;97.70;92.90;;;;;;;;;;5408655;26;20010;-55
2024/04/10 03:44:29;;;;;;;95.78;91.05;;;;;;;;;;5411861;26;20008;-55
2024/04/10 03:46:55;;;;;;;98.15;93.30;;;;;;;;;;5407180;26;20015;-57
2024/04/10 03:49:20;;;;;;;93.65;89.05;;;;;;;;;;5408146;26;20055;-57
2024/04/10 03:51:45;;;;;;;100.65;95.70;;;;;;;;;;5407150;26;20023;-57
2024/04/10 03:54:11;;;;;;;103.43;98.32;;;;;;;;;;5408619;26;20436;-56
2024/04/10 03:56:36;;;;;;;102.53;97.43;;;;;;;;;;5408066;26;20006;-56
2024/04/10 03:59:02;;;;;;;100.72;95.50;;;;;;;;;;5403230;26;20040;-55
2024/04/10 04:01:27;;;;;;;104.18;98.15;;;;;;;;;;5405856;26;20015;-57
2024/04/10 04:03:53;;;;;;;98.95;94.05;;;;;;;;;;5405789;26;20010;-57
2024/04/10 04:06:18;;;;;;;95.75;91.05;;;;;;;;;;5405889;26;20015;-56
2024/04/10 04:08:46;;;;;;;94.40;89.50;;;;;;;;;;5409899;26;20000;-57
2024/04/10 04:11:12;;;;;;;106.40;101.13;;;;;;;;;;5406437;26;20388;-59
2024/04/10 04:13:37;;;;;;;103.15;98.05;;;;;;;;;;5410862;26;20301;-56
2024/04/10 04:16:04;;;;;;;101.65;96.63;;;;;;;;;;5408911;26;20023;-57
2024/04/10 04:18:30;;;;;;;108.45;103.05;;;;;;;;;;5409672;26;20007;-56
2024/04/10 04:20:55;;;;;;;112.32;106.72;;;;;;;;;;5405341;26;20511;-59
2024/04/10 04:23:20;;;;;;;109.63;104.22;;;;;;;;;;5379882;26;20004;-56
2024/04/10 04:25:46;;;;;;;110.90;105.40;;;;;;;;;;5408090;26;20003;-59
2024/04/10 04:28:11;;;;;;;98.72;93.85;;;;;;;;;;5411068;26;20008;-57
2024/04/10 04:30:37;;;;;;;101.70;96.65;;;;;;;;;;5411134;26;20399;-58
2024/04/10 04:33:03;;;;;;;111.53;105.78;;;;;;;;;;5409887;26;20021;-56
2024/04/10 04:35:28;;;;;;;103.28;98.18;;;;;;;;;;5409364;26;20793;-58
2024/04/10 04:37:57;;;;;;;108.43;103.03;;;;;;;;;;5405650;26;20014;-57
2024/04/10 04:40:22;;;;;;;102.07;97.03;;;;;;;;;;5404647;26;20019;-59
2024/04/10 04:42:47;;;;;;;102.30;97.22;;;;;;;;;;5408447;26;20388;-59
2024/04/10 04:45:14;;;;;;;105.88;100.65;;;;;;;;;;5408508;26;20018;-57
2024/04/10 04:47:39;;;;;;;110.32;104.82;;;;;;;;;;5410647;26;20910;-59
2024/04/10 04:50:08;;;;;;;107.55;102.22;;;;;;;;;;5412940;26;20007;-57
2024/04/10 04:52:33;;;;;;;104.03;98.80;;;;;;;;;;5412429;26;20063;-57
2024/04/10 04:55:00;;;;;;;122.50;116.47;;;;;;;;;;5410393;26;20012;-55
2024/04/10 04:57:25;;;;;;;102.03;97.00;;;;;;;;;;5409271;26;20113;-57
2024/04/10 04:59:50;;;;;;;109.20;103.80;;;;;;;;;;5410164;26;20014;-58
2024/04/10 05:02:16;;;;;;;102.88;97.80;;;;;;;;;;5414844;26;20429;-56
2024/04/10 05:05:02;;;;;;;112.07;106.53;;;;;;;;;;5411840;26;20000;-60
2024/04/10 05:07:28;;;;;;;118.65;112.80;;;;;;;;;;5407242;26;20007;-55
2024/04/10 05:09:53;;;;;;;116.57;110.80;;;;;;;;;;5404959;26;20299;-59
2024/04/10 05:12:19;;;;;;;116.03;110.32;;;;;;;;;;5406753;26;20032;-60
2024/04/10 05:14:48;;;;;;;116.10;110.38;;;;;;;;;;5408982;26;19999;-59
2024/04/10 05:17:14;;;;;;;114.97;109.13;;;;;;;;;;5407629;26;21147;-58
2024/04/10 05:19:39;;;;;;;116.07;110.32;;;;;;;;;;5397032;26;20019;-58
2024/04/10 05:22:04;;;;;;;119.57;113.65;;;;;;;;;;5406651;26;20011;-59
2024/04/10 05:24:30;;;;;;;115.97;110.20;;;;;;;;;;5403313;26;21203;-60
2024/04/10 05:26:55;;;;;;;124.88;118.32;;;;;;;;;;5394914;26;20004;-59
2024/04/10 05:29:20;;;;;;;121.68;115.68;;;;;;;;;;5404324;26;20663;-59
2024/04/10 05:31:46;;;;;;;111.03;105.53;;;;;;;;;;5404677;26;20448;-59
2024/04/10 05:34:11;;;;;;;121.53;115.50;;;;;;;;;;5410690;26;20038;-59
2024/04/10 05:36:37;;;;;;;103.40;98.25;;;;;;;;;;5409087;26;20439;-58
2024/04/10 05:39:03;;;;;;;129.45;123.03;;;;;;;;;;5406009;26;20015;-59
2024/04/10 05:41:29;;;;;;;108.75;103.40;;;;;;;;;;5408025;26;20602;-59
2024/04/10 05:43:54;;;;;;;120.70;114.55;;;;;;;;;;5407435;26;20073;-59
2024/04/10 05:46:19;;;;;;;105.28;100.05;;;;;;;;;;5410646;26;20425;-59
2024/04/10 05:48:45;;;;;;;100.53;95.50;;;;;;;;;;5407523;26;20313;-59
2024/04/10 05:51:10;;;;;;;110.13;104.70;;;;;;;;;;5405792;26;20023;-58
2024/04/10 05:53:35;;;;;;;106.97;99.60;;;;;;;;;;5407219;26;20003;-57
2024/04/10 05:56:04;;;;;;;125.95;119.53;;;;;;;;;;5408076;26;20648;-57
2024/04/10 05:58:30;;;;;;;99.38;94.50;;;;;;;;;;5406401;26;19999;-58
2024/04/10 06:00:55;;;;;;;87.90;83.45;;;;;;;;;;5409949;26;20087;-58
2024/04/10 06:03:21;;;;;;;92.15;87.60;;;;;;;;;;5407821;26;20396;-58
2024/04/10 06:05:46;;;;;;;102.13;97.10;;;;;;;;;;5411155;26;20138;-57
2024/04/10 06:08:12;;;;;;;86.22;81.93;;;;;;;;;;5403942;26;20018;-59
2024/04/10 06:10:37;;;;;;;94.93;90.13;;;;;;;;;;5409073;26;20011;-60
2024/04/10 06:13:03;;;;;;;104.63;99.45;;;;;;;;;;5402890;26;20074;-60
2024/04/10 06:15:28;;;;;;;97.85;93.00;;;;;;;;;;5407781;26;20035;-60
2024/04/10 06:17:54;;;;;;;96.90;92.13;;;;;;;;;;5411010;26;20844;-60
2024/04/10 06:20:19;;;;;;;96.50;91.75;;;;;;;;;;5392531;26;20019;-60
2024/04/10 06:22:45;;;;;;;97.78;92.70;;;;;;;;;;5407364;26;20010;-60
2024/04/10 06:25:10;;;;;;;92.30;87.63;;;;;;;;;;5407617;26;20438;-60
2024/04/10 06:27:36;;;;;;;91.78;87.25;;;;;;;;;;5374404;26;20102;-60
2024/04/10 06:30:01;;;;;;;90.38;85.90;;;;;;;;;;5403937;26;20429;-60
2024/04/10 06:32:27;;;;;;;91.45;86.95;;;;;;;;;;5409450;26;20068;-60
2024/04/10 06:34:52;;;;;;;97.63;92.70;;;;;;;;;;5404601;26;20073;-60
2024/04/10 06:37:18;;;;;;;90.40;85.90;;;;;;;;;;5409335;26;20036;-60
2024/04/10 06:39:44;;;;;;;95.90;91.18;;;;;;;;;;5405922;26;20040;-60
2024/04/10 06:42:09;;;;;;;89.13;84.63;;;;;;;;;;5405520;26;20768;-60
2024/04/10 06:44:34;;;;;;;92.07;87.55;;;;;;;;;;5407424;26;20004;-60
2024/04/10 06:47:00;;;;;;;86.25;81.97;;;;;;;;;;5405364;26;19995;-59
2024/04/10 06:49:28;;;;;;;78.70;74.75;;;;;;;;;;5404625;26;20021;-60
2024/04/10 06:51:54;;;;;;;53.63;50.92;;;;;;;;;;5403992;26;20017;-60
2024/04/10 06:54:21;;;;;;;44.67;42.38;;;;;;;;;;5403691;26;20655;-60
2024/04/10 06:56:46;;;;;;;50.97;48.30;;;;;;;;;;5404785;26;20043;-60
2024/04/10 06:59:13;;;;;;;48.08;45.08;;;;;;;;;;5406417;26;20346;-60
2024/04/10 07:01:38;;;;;;;46.17;43.53;;;;;;;;;;5407244;26;19995;-60
2024/04/10 07:04:04;;;;;;;44.55;42.30;;;;;;;;;;5401498;26;20022;-60
2024/04/10 07:06:30;;;;;;;38.83;36.83;;;;;;;;;;5411010;26;20008;-60
2024/04/10 07:08:56;;;;;;;39.33;37.33;;;;;;;;;;5408230;26;20012;-60
2024/04/10 07:11:21;;;;;;;43.33;41.13;;;;;;;;;;5406306;26;20011;-59
2024/04/10 07:13:48;;;;;;;50.03;47.42;;;;;;;;;;5409587;26;20003;-60
2024/04/10 07:16:14;;;;;;;44.10;41.30;;;;;;;;;;5407312;26;20007;-60
2024/04/10 07:18:40;;;;;;;48.67;46.22;;;;;;;;;;5406478;26;20000;-60
2024/04/10 07:21:07;;;;;;;49.45;46.95;;;;;;;;;;5409948;26;20904;-60
2024/04/10 07:23:36;;;;;;;47.88;45.30;;;;;;;;;;5406861;26;20004;-57
2024/04/10 07:26:14;;;;;;;86.53;82.25;;;;;;;;;;5412616;26;20007;-58
2024/04/10 07:28:44;;;;;;;54.30;51.58;;;;;;;;;;5408721;26;20073;-58
2024/04/10 07:31:15;;;;;;;57.67;54.78;;;;;;;;;;5406508;26;20081;-58
2024/04/10 07:33:41;;;;;;;49.08;46.58;;;;;;;;;;5401844;26;20004;-58
2024/04/10 07:36:07;;;;;;;48.28;45.67;;;;;;;;;;5404867;26;20003;-58
2024/04/10 07:38:32;;;;;;;77.45;73.55;;;;;;;;;;5409426;26;20054;-58
2024/04/10 07:40:58;;;;;;;94.13;89.32;;;;;;;;;;5411211;26;20503;-58
2024/04/10 07:43:23;;;;;;;132.40;125.70;;;;;;;;;;5408019;26;20368;-58
2024/04/10 07:45:49;;;;;;;50.63;47.97;;;;;;;;;;5378010;26;20064;-58
2024/04/10 07:48:15;;;;;;;123.05;116.88;;;;;;;;;;5402445;26;20307;-58
2024/04/10 07:50:40;;;;;;;78.25;74.13;;;;;;;;;;5408182;26;20466;-58
2024/04/10 07:53:06;;;;;;;106.78;101.43;;;;;;;;;;5409361;26;20003;-58
2024/04/10 07:55:32;;;;;;;130.27;123.78;;;;;;;;;;5406741;26;20011;-58
2024/04/10 07:57:57;;;;;;;112.97;106.82;;;;;;;;;;5406221;26;20004;-58
2024/04/10 08:00:22;;;;;;;168.77;160.43;;;;;;;;;;5409710;26;20030;-58
2024/04/10 08:02:48;;;;;;;116.78;111.00;;;;;;;;;;5410537;26;20081;-58
2024/04/10 08:05:13;;;;;;;169.57;161.18;;;;;;;;;;5409219;26;19995;-58
2024/04/10 08:07:39;;;;;;;156.77;148.88;;;;;;;;;;5408764;26;20000;-59
2024/04/10 08:10:05;;;;;;;148.75;141.32;;;;;;;;;;5376182;26;20125;-58
2024/04/10 08:12:30;;;;;;;178.27;169.27;;;;;;;;;;5406153;26;20023;-58
2024/04/10 08:14:56;;;;;;;157.15;149.32;;;;;;;;;;5407851;26;20014;-59
2024/04/10 08:17:22;;;;;;;164.48;156.27;;;;;;;;;;5404875;26;20022;-58
2024/04/10 08:19:47;;;;;;;161.02;152.88;;;;;;;;;;5407552;26;19999;-58
2024/04/10 08:22:13;;;;;;;161.45;153.40;;;;;;;;;;5405579;26;20456;-58
2024/04/10 08:24:38;;;;;;;150.18;142.60;;;;;;;;;;5405605;26;20007;-58
2024/04/10 08:27:04;;;;;;;146.43;139.13;;;;;;;;;;5412073;26;20329;-58
2024/04/10 08:29:29;;;;;;;125.65;119.28;;;;;;;;;;5409924;26;20400;-58
2024/04/10 08:31:56;;;;;;;113.40;107.70;;;;;;;;;;5410150;26;20025;-58
2024/04/10 08:34:22;;;;;;;78.55;74.63;;;;;;;;;;5407948;26;20411;-58
2024/04/10 08:36:47;;;;;;;68.00;64.60;;;;;;;;;;5409437;26;19999;-58
2024/04/10 08:39:12;;;;;;;112.95;107.35;;;;;;;;;;5408973;26;20003;-58
2024/04/10 08:41:39;;;;;;;56.22;53.38;;;;;;;;;;5405382;26;20077;-59
2024/04/10 08:44:06;;;;;;;90.68;86.15;;;;;;;;;;5409474;26;19999;-58
2024/04/10 08:46:37;;;;;;;68.28;64.47;;;;;;;;;;5409140;26;20069;-55
2024/04/10 08:49:03;;;;;;;76.35;72.50;;;;;;;;;;5414194;26;19999;-59
2024/04/10 08:51:32;;;;;;;98.43;93.53;;;;;;;;;;5408184;26;19998;-59
2024/04/10 08:53:58;;;;;;;67.32;63.95;;;;;;;;;;5408976;26;20007;-59
2024/04/10 08:56:24;;;;;;;69.63;66.03;;;;;;;;;;5404492;26;20330;-55
2024/04/10 08:58:50;;;;;;;89.88;85.32;;;;;;;;;;5412865;26;20582;-58
2024/04/10 09:01:26;;;;;;;99.10;94.15;;;;;;;;;;5408916;26;20011;-58
2024/04/10 09:03:51;;;;;;;93.55;88.65;;;;;;;;;;5407450;26;20014;-58
2024/04/10 09:06:19;;;;;;;71.82;68.22;;;;;;;;;;5407049;26;20039;-58
2024/04/10 09:08:58;;;;;;;75.72;71.82;;;;;;;;;;5404708;26;20401;-56
2024/04/10 09:11:23;;;;;;;89.22;84.78;;;;;;;;;;5407474;26;20003;-58
2024/04/10 09:13:59;;;;;;;73.32;69.65;;;;;;;;;;5409090;26;20007;-58
2024/04/10 09:16:25;;;;;;;95.00;90.25;;;;;;;;;;5406926;26;20003;-59
2024/04/10 09:18:50;;;;;;;94.80;90.03;;;;;;;;;;5406348;26;20704;-58
2024/04/10 09:21:16;;;;;;;91.82;87.07;;;;;;;;;;5405794;26;20019;-58
2024/04/10 09:23:41;;;;;;;66.80;63.45;;;;;;;;;;5408123;26;20021;-58
2024/04/10 09:26:07;;;;;;;85.95;81.65;;;;;;;;;;5404154;26;20011;-58
2024/04/10 09:28:33;;;;;;;107.85;102.50;;;;;;;;;;5407181;26;20000;-58
2024/04/10 09:30:59;;;;;;;92.00;87.45;;;;;;;;;;5407450;26;20317;-58
2024/04/10 09:33:32;;;;;;;71.65;68.07;;;;;;;;;;5409775;26;19999;-58
2024/04/10 09:35:59;;;;;;;70.60;66.63;;;;;;;;;;5407165;26;20003;-58
2024/04/10 09:38:27;;;;;;;102.55;97.47;;;;;;;;;;5408220;26;20073;-58
2024/04/10 09:41:04;;;;;;;105.85;100.25;;;;;;;;;;5406335;26;20015;-59
2024/04/10 09:43:31;;;;;;;100.63;95.57;;;;;;;;;;5404611;26;20025;-59
2024/04/10 09:46:03;;;;;;;81.53;77.50;;;;;;;;;;5406060;26;20003;-58
2024/04/10 09:49:42;;;;;;;112.03;106.47;;;;;;;;;;5497496;25;20831;-58
2024/04/10 09:52:10;;;;;;;133.90;126.75;;;;;;;;;;5461724;25;20020;-58
2024/04/10 09:54:36;;;;;;;162.93;154.73;;;;;;;;;;5494829;25;20017;-58
2024/04/10 09:57:01;;;;;;;146.57;139.30;;;;;;;;;;5493413;25;20324;-58
2024/04/10 09:59:28;;;;;;;90.25;85.70;;;;;;;;;;5496138;25;20034;-58
2024/04/10 10:01:55;;;;;;;144.15;136.77;;;;;;;;;;5489500;25;20104;-59
2024/04/10 10:04:21;;;;;;;131.05;124.45;;;;;;;;;;5492192;25;20026;-58
2024/04/10 10:06:46;;;;;;;162.68;154.00;;;;;;;;;;5485581;25;20408;-59
2024/04/10 10:09:22;;;;;;;62.55;59.30;;;;;;;;;;5488074;25;20431;-58
2024/04/10 10:11:58;;;;;;;74.28;70.47;;;;;;;;;;5487569;25;20023;-59
2024/04/10 10:14:27;;;;;;;61.92;58.80;;;;;;;;;;5491858;25;20014;-59
2024/04/10 10:17:07;;;;;;;106.63;101.32;;;;;;;;;;5486254;25;20102;-60
2024/04/10 10:19:36;;;;;;;64.72;61.42;;;;;;;;;;5490162;25;20328;-60
2024/04/10 10:22:01;;;;;;;64.95;61.65;;;;;;;;;;5492991;25;20016;-60
2024/04/10 10:24:29;;;;;;;57.05;54.15;;;;;;;;;;5493460;25;20018;-59
2024/04/10 10:27:02;;;;;;;102.43;97.28;;;;;;;;;;5490933;25;20014;-57
2024/04/10 10:29:30;;;;;;;130.07;123.57;;;;;;;;;;5498134;25;20014;-58
2024/04/10 10:32:02;;;;;;;113.88;108.15;;;;;;;;;;5494632;25;20049;-60
2024/04/10 10:34:28;;;;;;;93.60;88.82;;;;;;;;;;5484721;25;20024;-60
2024/04/10 10:36:53;;;;;;;104.32;99.13;;;;;;;;;;5491172;25;20456;-62
2024/04/10 10:39:19;;;;;;;73.07;69.40;;;;;;;;;;5458180;25;20347;-60
2024/04/10 10:41:45;;;;;;;112.65;107.05;;;;;;;;;;5489486;25;20581;-60
2024/04/10 10:44:10;;;;;;;67.80;64.18;;;;;;;;;;5463239;25;20014;-58
2024/04/10 10:46:35;;;;;;;89.00;84.47;;;;;;;;;;5488836;25;20013;-58
2024/04/10 10:49:04;;;;;;;78.65;74.53;;;;;;;;;;5496701;25;20479;-57
2024/04/10 10:51:33;;;;;;;107.30;101.93;;;;;;;;;;5455981;25;20058;-58
2024/04/10 10:53:58;;;;;;;68.88;65.43;;;;;;;;;;5461808;25;20113;-59
2024/04/10 10:56:30;;;;;;;117.47;111.63;;;;;;;;;;5431252;25;20299;-59
2024/04/10 10:59:07;;;;;;;105.40;100.15;;;;;;;;;;5440476;26;20046;-59
2024/04/10 11:01:34;;;;;;;128.73;122.32;;;;;;;;;;5449389;26;20013;-59
2024/04/10 11:04:16;;;;;;;124.95;118.75;;;;;;;;;;5484482;26;20633;-59
2024/04/10 11:06:42;;;;;;;116.90;111.10;;;;;;;;;;5446461;26;20669;-60
2024/04/10 11:09:12;;;;;;;100.53;95.57;;;;;;;;;;5449391;26;20079;-59
2024/04/10 11:11:38;;;;;;;104.55;99.40;;;;;;;;;;5468070;26;20014;-60
2024/04/10 11:14:04;;;;;;;93.50;88.70;;;;;;;;;;5470889;26;20081;-57
2024/04/10 11:16:34;;;;;;;93.75;89.10;;;;;;;;;;5472781;26;20028;-60
2024/04/10 11:19:00;;;;;;;84.63;80.45;;;;;;;;;;5415030;26;20009;-58
2024/04/10 11:21:26;;;;;;;100.72;95.65;;;;;;;;;;5471366;26;20054;-59
2024/04/10 11:23:52;;;;;;;94.88;90.18;;;;;;;;;;5475260;26;19997;-58
2024/04/10 11:26:17;;;;;;;96.72;91.90;;;;;;;;;;5467265;26;20022;-59
2024/04/10 11:28:43;;;;;;;101.50;96.47;;;;;;;;;;5478948;26;20393;-58
2024/04/10 11:31:10;;;;;;;102.20;97.15;;;;;;;;;;5474909;26;20324;-58
2024/04/10 11:33:36;;;;;;;104.50;99.32;;;;;;;;;;5477487;26;20020;-58
2024/04/10 11:36:02;;;;;;;100.45;95.45;;;;;;;;;;5475236;26;20096;-59
2024/04/10 11:38:27;;;;;;;81.45;77.32;;;;;;;;;;5476759;25;20011;-58
2024/04/10 11:40:53;;;;;;;100.60;95.65;;;;;;;;;;5476923;26;20054;-59
2024/04/10 11:43:18;;;;;;;98.63;93.70;;;;;;;;;;5481243;26;20024;-58
2024/04/10 11:45:46;;;;;;;125.28;118.28;;;;;;;;;;5482048;25;20042;-58
2024/04/10 11:48:11;;;;;;;120.70;114.45;;;;;;;;;;5477101;26;20044;-58
2024/04/10 11:50:37;;;;;;;130.07;123.57;;;;;;;;;;5478670;26;20010;-58
2024/04/10 11:53:02;;;;;;;126.35;120.05;;;;;;;;;;5477727;26;20330;-58
2024/04/10 11:55:28;;;;;;;108.93;103.55;;;;;;;;;;5473646;26;20161;-58
2024/04/10 11:57:54;;;;;;;109.47;103.97;;;;;;;;;;5477359;25;20005;-59
2024/04/10 12:00:20;;;;;;;119.93;114.00;;;;;;;;;;5473984;26;20014;-58
2024/04/10 12:02:45;;;;;;;102.38;97.13;;;;;;;;;;5476670;26;20005;-59
2024/04/10 12:05:11;;;;;;;102.50;97.43;;;;;;;;;;5442295;26;20025;-57
2024/04/10 12:07:37;;;;;;;117.65;111.78;;;;;;;;;;5476697;26;20014;-59
2024/04/10 12:10:06;;;;;;;82.00;77.70;;;;;;;;;;5476974;26;20017;-59
2024/04/10 12:12:32;;;;;;;64.45;60.78;;;;;;;;;;5480448;26;20005;-58
2024/04/10 12:14:57;;;;;;;60.42;57.38;;;;;;;;;;5475926;26;20434;-58
2024/04/10 12:17:23;;;;;;;67.65;64.20;;;;;;;;;;5469283;26;20029;-59
2024/04/10 12:19:49;;;;;;;90.68;86.10;;;;;;;;;;5441580;26;20017;-58
2024/04/10 12:22:14;;;;;;;101.82;96.80;;;;;;;;;;5438582;26;20005;-59
2024/04/10 12:24:40;;;;;;;116.00;110.22;;;;;;;;;;5444019;26;20014;-59
2024/04/10 12:27:05;;;;;;;112.30;106.63;;;;;;;;;;5477830;26;20005;-58
2024/04/10 12:29:31;;;;;;;130.65;124.18;;;;;;;;;;5482553;26;20010;-58
2024/04/10 12:31:56;;;;;;;136.75;129.98;;;;;;;;;;5473701;26;20006;-58
2024/04/10 12:34:22;;;;;;;99.07;94.18;;;;;;;;;;5469694;26;20045;-60
2024/04/10 12:39:33;;;;;;;129.68;123.10;;;;;;;;;;5475099;26;20328;-58
2024/04/10 12:41:58;;;;;;;154.93;147.27;;;;;;;;;;5443264;26;20002;-59
2024/04/10 12:44:24;;;;;;;147.32;140.00;;;;;;;;;;5471377;26;20345;-59
2024/04/10 12:46:54;;;;;;;146.75;139.30;;;;;;;;;;5475086;26;20021;-59
2024/04/10 12:49:23;;;;;;;135.50;128.80;;;;;;;;;;5477748;26;20017;-59
2024/04/10 12:51:49;;;;;;;148.63;141.27;;;;;;;;;;5475820;26;20079;-58
2024/04/10 12:54:15;;;;;;;156.35;148.55;;;;;;;;;;5480553;26;20018;-59
2024/04/10 12:56:41;;;;;;;138.85;132.02;;;;;;;;;;5473910;26;20010;-58
2024/04/10 12:59:07;;;;;;;153.73;146.10;;;;;;;;;;5451860;26;20064;-59
2024/04/10 13:01:32;;;;;;;135.07;128.35;;;;;;;;;;5473091;26;20302;-59
2024/04/10 13:03:57;;;;;;;153.10;145.55;;;;;;;;;;5469454;26;20351;-58
2024/04/10 13:06:24;;;;;;;138.73;131.77;;;;;;;;;;5478205;26;20016;-58
2024/04/10 13:08:54;;;;;;;124.65;118.45;;;;;;;;;;5473337;26;20014;-59
2024/04/10 13:11:19;;;;;;;107.28;102.00;;;;;;;;;;5478272;26;21005;-58
2024/04/10 13:13:45;;;;;;;119.53;113.30;;;;;;;;;;5472622;26;20065;-58
2024/04/10 13:16:10;;;;;;;112.00;106.50;;;;;;;;;;5478168;26;20002;-58
2024/04/10 13:18:42;;;;;;;115.43;109.72;;;;;;;;;;5465684;26;20021;-58
2024/04/10 13:21:08;;;;;;;106.20;100.95;;;;;;;;;;5471590;26;20021;-58
2024/04/10 13:23:37;;;;;;;111.05;105.35;;;;;;;;;;5471613;26;20488;-58
2024/04/10 13:26:06;;;;;;;97.65;92.80;;;;;;;;;;5467760;26;20449;-57
2024/04/10 13:28:31;;;;;;;101.40;96.40;;;;;;;;;;5440627;26;20014;-57
2024/04/10 13:31:14;;;;;;;100.15;95.20;;;;;;;;;;5468176;26;20043;-57
2024/04/10 13:33:46;;;;;;;72.40;68.72;;;;;;;;;;5468557;26;20096;-58
2024/04/10 13:36:21;;;;;;;48.47;46.00;;;;;;;;;;5474637;26;20017;-57
2024/04/10 13:38:49;;;;;;;65.13;61.83;;;;;;;;;;5472264;26;20019;-56
2024/04/10 13:41:17;;;;;;;51.47;48.88;;;;;;;;;;5436932;26;20411;-57
2024/04/10 13:43:44;;;;;;;55.28;52.38;;;;;;;;;;5478814;26;20002;-57
2024/04/10 13:46:13;;;;;;;47.17;44.78;;;;;;;;;;5474723;26;20009;-57
2024/04/10 13:48:41;;;;;;;47.72;45.30;;;;;;;;;;5445624;26;20021;-61
2024/04/10 13:51:07;;;;;;;49.03;46.30;;;;;;;;;;5474914;26;20599;-57
2024/04/10 13:53:33;;;;;;;64.85;61.60;;;;;;;;;;5477072;26;21328;-57
2024/04/10 13:56:11;;;;;;;68.63;65.13;;;;;;;;;;5467533;26;20042;-55
2024/04/10 13:58:39;;;;;;;77.25;73.40;;;;;;;;;;5475910;26;20128;-57
2024/04/10 14:01:15;;;;;;;86.28;82.00;;;;;;;;;;5474221;26;20026;-58
2024/04/10 14:03:42;;;;;;;83.15;79.03;;;;;;;;;;5471735;26;20432;-57
2024/04/10 14:06:08;;;;;;;98.22;93.35;;;;;;;;;;5472975;26;20397;-58
2024/04/10 14:08:34;;;;;;;106.07;100.20;;;;;;;;;;5473740;26;20530;-57